sensor_id;sensor_type;location;lat;lon;timestamp;P1;durP1;ratioP1;P2;durP2;ratioP2
40046;SDS011;31510;48.122;11.576;2023-03-01T00:01:30;21.63;;;11.40;;
40046;SDS011;31510;48.122;11.576;2023-03-01T00:03:55;23.73;;;12.05;;
40046;SDS011;31510;48.122;11.576;2023-03-01T00:06:21;20.77;;;12.57;;
40046;SDS011;31510;48.122;11.576;2023-03-01T00:08:47;20.40;;;11.60;;
40046;SDS011;31510;48.122;11.576;2023-03-01T00:11:18;24.42;;;11.35;;
40046;SDS011;31510;48.122;11.576;2023-03-01T00:13:46;21.52;;;11.05;;
40046;SDS011;31510;48.122;11.576;2023-03-01T00:16:23;19.42;;;11.25;;
40046;SDS011;31510;48.122;11.576;2023-03-01T00:18:49;21.15;;;11.65;;
40046;SDS011;31510;48.122;11.576;2023-03-01T00:21:15;18.20;;;10.65;;
40046;SDS011;31510;48.122;11.576;2023-03-01T00:23:41;21.38;;;11.25;;
40046;SDS011;31510;48.122;11.576;2023-03-01T00:26:07;19.48;;;11.55;;
40046;SDS011;31510;48.122;11.576;2023-03-01T00:28:34;19.65;;;10.88;;
40046;SDS011;31510;48.122;11.576;2023-03-01T00:31:05;23.08;;;10.65;;
40046;SDS011;31510;48.122;11.576;2023-03-01T00:33:35;19.67;;;10.90;;
40046;SDS011;31510;48.122;11.576;2023-03-01T00:36:00;20.38;;;11.23;;
40046;SDS011;31510;48.122;11.576;2023-03-01T00:38:27;19.60;;;11.20;;
40046;SDS011;31510;48.122;11.576;2023-03-01T00:40:52;20.40;;;11.13;;
40046;SDS011;31510;48.122;11.576;2023-03-01T00:43:18;19.10;;;10.60;;
40046;SDS011;31510;48.122;11.576;2023-03-01T00:45:44;21.73;;;11.77;;
40046;SDS011;31510;48.122;11.576;2023-03-01T00:48:09;24.55;;;12.15;;
40046;SDS011;31510;48.122;11.576;2023-03-01T00:50:35;21.17;;;11.15;;
40046;SDS011;31510;48.122;11.576;2023-03-01T00:53:00;20.25;;;11.57;;
40046;SDS011;31510;48.122;11.576;2023-03-01T00:55:26;17.75;;;10.20;;
40046;SDS011;31510;48.122;11.576;2023-03-01T00:57:51;17.90;;;10.07;;
40046;SDS011;31510;48.122;11.576;2023-03-01T01:00:17;21.50;;;10.93;;
40046;SDS011;31510;48.122;11.576;2023-03-01T01:02:42;23.83;;;12.00;;
40046;SDS011;31510;48.122;11.576;2023-03-01T01:05:08;20.27;;;10.65;;
40046;SDS011;31510;48.122;11.576;2023-03-01T01:07:33;27.88;;;11.68;;
40046;SDS011;31510;48.122;11.576;2023-03-01T01:09:59;17.25;;;10.05;;
40046;SDS011;31510;48.122;11.576;2023-03-01T01:12:24;19.48;;;10.80;;
40046;SDS011;31510;48.122;11.576;2023-03-01T01:14:50;16.98;;;10.10;;
40046;SDS011;31510;48.122;11.576;2023-03-01T01:17:15;21.02;;;10.65;;
40046;SDS011;31510;48.122;11.576;2023-03-01T01:19:40;20.08;;;10.77;;
40046;SDS011;31510;48.122;11.576;2023-03-01T01:22:06;23.63;;;11.80;;
40046;SDS011;31510;48.122;11.576;2023-03-01T01:24:31;18.70;;;11.30;;
40046;SDS011;31510;48.122;11.576;2023-03-01T01:26:56;22.05;;;11.05;;
40046;SDS011;31510;48.122;11.576;2023-03-01T01:29:22;24.13;;;13.07;;
40046;SDS011;31510;48.122;11.576;2023-03-01T01:31:47;21.42;;;10.52;;
40046;SDS011;31510;48.122;11.576;2023-03-01T01:34:13;20.92;;;11.68;;
40046;SDS011;31510;48.122;11.576;2023-03-01T01:36:40;20.85;;;11.50;;
40046;SDS011;31510;48.122;11.576;2023-03-01T01:39:06;20.83;;;11.55;;
40046;SDS011;31510;48.122;11.576;2023-03-01T01:41:32;18.20;;;10.18;;
40046;SDS011;31510;48.122;11.576;2023-03-01T01:47:07;27.27;;;12.75;;
40046;SDS011;31510;48.122;11.576;2023-03-01T01:52:27;21.08;;;11.65;;
40046;SDS011;31510;48.122;11.576;2023-03-01T01:55:00;20.63;;;12.00;;
40046;SDS011;31510;48.122;11.576;2023-03-01T01:57:49;21.05;;;11.23;;
40046;SDS011;31510;48.122;11.576;2023-03-01T02:00:26;14.95;;;9.73;;
40046;SDS011;31510;48.122;11.576;2023-03-01T02:03:53;23.90;;;11.50;;
40046;SDS011;31510;48.122;11.576;2023-03-01T02:05:56;23.10;;;11.63;;
40046;SDS011;31510;48.122;11.576;2023-03-01T02:08:27;17.92;;;10.68;;
40046;SDS011;31510;48.122;11.576;2023-03-01T02:10:57;22.63;;;12.20;;
40046;SDS011;31510;48.122;11.576;2023-03-01T02:13:24;20.92;;;12.20;;
40046;SDS011;31510;48.122;11.576;2023-03-01T02:15:50;20.15;;;11.43;;
40046;SDS011;31510;48.122;11.576;2023-03-01T02:18:16;20.27;;;11.68;;
40046;SDS011;31510;48.122;11.576;2023-03-01T02:23:33;24.35;;;11.85;;
40046;SDS011;31510;48.122;11.576;2023-03-01T02:26:05;24.02;;;10.52;;
40046;SDS011;31510;48.122;11.576;2023-03-01T02:28:37;19.80;;;10.93;;
40046;SDS011;31510;48.122;11.576;2023-03-01T02:31:05;20.15;;;11.80;;
40046;SDS011;31510;48.122;11.576;2023-03-01T02:33:51;17.50;;;10.02;;
40046;SDS011;31510;48.122;11.576;2023-03-01T02:36:22;24.02;;;11.35;;
40046;SDS011;31510;48.122;11.576;2023-03-01T02:38:51;20.90;;;11.45;;
40046;SDS011;31510;48.122;11.576;2023-03-01T02:41:19;20.08;;;10.82;;
40046;SDS011;31510;48.122;11.576;2023-03-01T02:43:46;19.17;;;11.35;;
40046;SDS011;31510;48.122;11.576;2023-03-01T02:46:16;20.33;;;11.93;;
40046;SDS011;31510;48.122;11.576;2023-03-01T02:48:46;17.35;;;11.32;;
40046;SDS011;31510;48.122;11.576;2023-03-01T02:53:56;18.45;;;10.60;;
40046;SDS011;31510;48.122;11.576;2023-03-01T02:56:30;23.05;;;10.93;;
40046;SDS011;31510;48.122;11.576;2023-03-01T02:58:56;23.27;;;11.25;;
40046;SDS011;31510;48.122;11.576;2023-03-01T03:01:25;23.15;;;11.70;;
40046;SDS011;31510;48.122;11.576;2023-03-01T03:04:01;20.83;;;11.60;;
40046;SDS011;31510;48.122;11.576;2023-03-01T03:06:26;21.13;;;11.32;;
40046;SDS011;31510;48.122;11.576;2023-03-01T03:08:51;22.27;;;11.10;;
40046;SDS011;31510;48.122;11.576;2023-03-01T03:11:17;17.98;;;10.43;;
40046;SDS011;31510;48.122;11.576;2023-03-01T03:13:42;19.15;;;10.65;;
40046;SDS011;31510;48.122;11.576;2023-03-01T03:18:38;20.83;;;11.30;;
40046;SDS011;31510;48.122;11.576;2023-03-01T03:21:03;19.40;;;10.45;;
40046;SDS011;31510;48.122;11.576;2023-03-01T03:23:35;18.27;;;10.65;;
40046;SDS011;31510;48.122;11.576;2023-03-01T03:26:01;21.98;;;10.82;;
40046;SDS011;31510;48.122;11.576;2023-03-01T03:28:29;19.55;;;10.80;;
40046;SDS011;31510;48.122;11.576;2023-03-01T03:30:57;22.05;;;12.15;;
40046;SDS011;31510;48.122;11.576;2023-03-01T03:33:23;20.60;;;10.88;;
40046;SDS011;31510;48.122;11.576;2023-03-01T03:35:49;22.48;;;12.10;;
40046;SDS011;31510;48.122;11.576;2023-03-01T03:38:16;19.05;;;10.95;;
40046;SDS011;31510;48.122;11.576;2023-03-01T03:40:48;18.42;;;11.13;;
40046;SDS011;31510;48.122;11.576;2023-03-01T03:43:15;20.23;;;12.02;;
40046;SDS011;31510;48.122;11.576;2023-03-01T03:45:43;21.17;;;11.13;;
40046;SDS011;31510;48.122;11.576;2023-03-01T03:48:09;19.90;;;10.43;;
40046;SDS011;31510;48.122;11.576;2023-03-01T03:50:35;20.48;;;11.73;;
40046;SDS011;31510;48.122;11.576;2023-03-01T03:53:01;19.65;;;11.20;;
40046;SDS011;31510;48.122;11.576;2023-03-01T03:55:28;19.65;;;10.57;;
40046;SDS011;31510;48.122;11.576;2023-03-01T03:57:56;20.55;;;11.32;;
40046;SDS011;31510;48.122;11.576;2023-03-01T04:00:26;23.08;;;11.25;;
40046;SDS011;31510;48.122;11.576;2023-03-01T04:02:52;20.50;;;12.00;;
40046;SDS011;31510;48.122;11.576;2023-03-01T04:05:21;20.48;;;11.52;;
40046;SDS011;31510;48.122;11.576;2023-03-01T04:07:47;23.75;;;13.32;;
40046;SDS011;31510;48.122;11.576;2023-03-01T04:10:14;19.25;;;11.20;;
40046;SDS011;31510;48.122;11.576;2023-03-01T04:12:41;24.25;;;12.00;;
40046;SDS011;31510;48.122;11.576;2023-03-01T04:15:08;22.67;;;12.10;;
40046;SDS011;31510;48.122;11.576;2023-03-01T04:17:44;22.25;;;12.10;;
40046;SDS011;31510;48.122;11.576;2023-03-01T04:20:12;20.30;;;11.18;;
40046;SDS011;31510;48.122;11.576;2023-03-01T04:23:12;18.83;;;11.70;;
40046;SDS011;31510;48.122;11.576;2023-03-01T04:25:52;18.67;;;10.63;;
40046;SDS011;31510;48.122;11.576;2023-03-01T04:28:22;23.00;;;11.85;;
40046;SDS011;31510;48.122;11.576;2023-03-01T04:30:55;19.90;;;11.30;;
40046;SDS011;31510;48.122;11.576;2023-03-01T04:35:49;17.38;;;11.75;;
40046;SDS011;31510;48.122;11.576;2023-03-01T04:38:14;23.40;;;11.82;;
40046;SDS011;31510;48.122;11.576;2023-03-01T04:40:40;22.15;;;11.48;;
40046;SDS011;31510;48.122;11.576;2023-03-01T04:43:08;23.38;;;11.77;;
40046;SDS011;31510;48.122;11.576;2023-03-01T04:45:34;19.98;;;12.55;;
40046;SDS011;31510;48.122;11.576;2023-03-01T04:48:00;21.80;;;12.60;;
40046;SDS011;31510;48.122;11.576;2023-03-01T04:50:26;21.15;;;12.20;;
40046;SDS011;31510;48.122;11.576;2023-03-01T04:52:51;25.63;;;13.07;;
40046;SDS011;31510;48.122;11.576;2023-03-01T04:55:17;22.30;;;11.98;;
40046;SDS011;31510;48.122;11.576;2023-03-01T04:57:42;22.23;;;11.55;;
40046;SDS011;31510;48.122;11.576;2023-03-01T05:00:09;24.48;;;13.43;;
40046;SDS011;31510;48.122;11.576;2023-03-01T05:02:55;22.73;;;12.10;;
40046;SDS011;31510;48.122;11.576;2023-03-01T05:05:24;21.52;;;13.00;;
40046;SDS011;31510;48.122;11.576;2023-03-01T05:08:04;21.70;;;11.20;;
40046;SDS011;31510;48.122;11.576;2023-03-01T05:10:31;24.35;;;13.07;;
40046;SDS011;31510;48.122;11.576;2023-03-01T05:12:59;19.85;;;11.23;;
40046;SDS011;31510;48.122;11.576;2023-03-01T05:15:26;20.88;;;12.70;;
40046;SDS011;31510;48.122;11.576;2023-03-01T05:17:52;21.88;;;11.75;;
40046;SDS011;31510;48.122;11.576;2023-03-01T05:20:19;20.92;;;11.73;;
40046;SDS011;31510;48.122;11.576;2023-03-01T05:22:47;21.08;;;10.88;;
40046;SDS011;31510;48.122;11.576;2023-03-01T05:25:13;22.38;;;11.77;;
40046;SDS011;31510;48.122;11.576;2023-03-01T05:27:39;20.42;;;12.10;;
40046;SDS011;31510;48.122;11.576;2023-03-01T05:30:04;21.00;;;12.88;;
40046;SDS011;31510;48.122;11.576;2023-03-01T05:32:38;21.35;;;12.30;;
40046;SDS011;31510;48.122;11.576;2023-03-01T05:35:08;24.98;;;11.82;;
40046;SDS011;31510;48.122;11.576;2023-03-01T05:37:38;22.52;;;12.65;;
40046;SDS011;31510;48.122;11.576;2023-03-01T05:40:08;21.45;;;12.45;;
40046;SDS011;31510;48.122;11.576;2023-03-01T05:42:40;21.27;;;11.80;;
40046;SDS011;31510;48.122;11.576;2023-03-01T05:45:06;21.65;;;11.70;;
40046;SDS011;31510;48.122;11.576;2023-03-01T05:47:34;22.45;;;11.32;;
40046;SDS011;31510;48.122;11.576;2023-03-01T05:50:00;24.15;;;12.25;;
40046;SDS011;31510;48.122;11.576;2023-03-01T05:52:26;21.33;;;12.80;;
40046;SDS011;31510;48.122;11.576;2023-03-01T05:54:51;22.45;;;12.02;;
40046;SDS011;31510;48.122;11.576;2023-03-01T05:57:16;24.13;;;12.60;;
40046;SDS011;31510;48.122;11.576;2023-03-01T05:59:41;23.95;;;11.90;;
40046;SDS011;31510;48.122;11.576;2023-03-01T06:02:07;24.23;;;13.18;;
40046;SDS011;31510;48.122;11.576;2023-03-01T06:04:32;22.10;;;11.52;;
40046;SDS011;31510;48.122;11.576;2023-03-01T06:06:57;24.52;;;11.93;;
40046;SDS011;31510;48.122;11.576;2023-03-01T06:09:22;22.27;;;11.82;;
40046;SDS011;31510;48.122;11.576;2023-03-01T06:11:48;24.33;;;12.80;;
40046;SDS011;31510;48.122;11.576;2023-03-01T06:14:13;20.65;;;12.25;;
40046;SDS011;31510;48.122;11.576;2023-03-01T06:16:39;24.33;;;12.73;;
40046;SDS011;31510;48.122;11.576;2023-03-01T06:19:05;24.25;;;12.30;;
40046;SDS011;31510;48.122;11.576;2023-03-01T06:21:30;24.52;;;12.73;;
40046;SDS011;31510;48.122;11.576;2023-03-01T06:23:55;22.85;;;12.07;;
40046;SDS011;31510;48.122;11.576;2023-03-01T06:26:21;25.60;;;12.77;;
40046;SDS011;31510;48.122;11.576;2023-03-01T06:28:46;24.92;;;13.38;;
40046;SDS011;31510;48.122;11.576;2023-03-01T06:31:11;28.05;;;12.98;;
40046;SDS011;31510;48.122;11.576;2023-03-01T06:33:37;23.58;;;12.18;;
40046;SDS011;31510;48.122;11.576;2023-03-01T06:36:02;24.17;;;12.32;;
40046;SDS011;31510;48.122;11.576;2023-03-01T06:38:28;25.73;;;12.55;;
40046;SDS011;31510;48.122;11.576;2023-03-01T06:40:54;27.85;;;13.13;;
40046;SDS011;31510;48.122;11.576;2023-03-01T06:43:21;28.60;;;12.38;;
40046;SDS011;31510;48.122;11.576;2023-03-01T06:45:46;20.83;;;11.95;;
40046;SDS011;31510;48.122;11.576;2023-03-01T06:48:12;24.88;;;12.25;;
40046;SDS011;31510;48.122;11.576;2023-03-01T06:50:37;25.77;;;13.10;;
40046;SDS011;31510;48.122;11.576;2023-03-01T06:53:02;25.48;;;12.57;;
40046;SDS011;31510;48.122;11.576;2023-03-01T06:55:28;21.88;;;11.95;;
40046;SDS011;31510;48.122;11.576;2023-03-01T06:57:54;22.33;;;12.10;;
40046;SDS011;31510;48.122;11.576;2023-03-01T07:00:21;23.83;;;13.90;;
40046;SDS011;31510;48.122;11.576;2023-03-01T07:02:47;23.08;;;12.73;;
40046;SDS011;31510;48.122;11.576;2023-03-01T07:05:12;25.25;;;13.35;;
40046;SDS011;31510;48.122;11.576;2023-03-01T07:07:37;20.95;;;12.50;;
40046;SDS011;31510;48.122;11.576;2023-03-01T07:10:03;24.42;;;12.65;;
40046;SDS011;31510;48.122;11.576;2023-03-01T07:12:28;26.80;;;12.98;;
40046;SDS011;31510;48.122;11.576;2023-03-01T07:14:53;23.88;;;12.88;;
40046;SDS011;31510;48.122;11.576;2023-03-01T07:17:19;26.40;;;12.63;;
40046;SDS011;31510;48.122;11.576;2023-03-01T07:19:44;24.35;;;12.05;;
40046;SDS011;31510;48.122;11.576;2023-03-01T07:22:10;24.92;;;11.95;;
40046;SDS011;31510;48.122;11.576;2023-03-01T07:24:35;24.40;;;12.90;;
40046;SDS011;31510;48.122;11.576;2023-03-01T07:27:00;26.00;;;12.45;;
40046;SDS011;31510;48.122;11.576;2023-03-01T07:29:25;23.65;;;12.55;;
40046;SDS011;31510;48.122;11.576;2023-03-01T07:31:51;24.25;;;12.98;;
40046;SDS011;31510;48.122;11.576;2023-03-01T07:34:16;23.98;;;12.98;;
40046;SDS011;31510;48.122;11.576;2023-03-01T07:36:41;25.60;;;13.75;;
40046;SDS011;31510;48.122;11.576;2023-03-01T07:39:08;23.13;;;12.32;;
40046;SDS011;31510;48.122;11.576;2023-03-01T07:41:34;25.92;;;12.25;;
40046;SDS011;31510;48.122;11.576;2023-03-01T07:44:00;26.15;;;13.25;;
40046;SDS011;31510;48.122;11.576;2023-03-01T07:46:25;26.58;;;12.65;;
40046;SDS011;31510;48.122;11.576;2023-03-01T07:48:50;21.70;;;12.13;;
40046;SDS011;31510;48.122;11.576;2023-03-01T07:51:16;26.33;;;12.98;;
40046;SDS011;31510;48.122;11.576;2023-03-01T07:53:41;23.70;;;13.52;;
40046;SDS011;31510;48.122;11.576;2023-03-01T07:56:07;24.00;;;12.55;;
40046;SDS011;31510;48.122;11.576;2023-03-01T07:58:35;23.92;;;13.00;;
40046;SDS011;31510;48.122;11.576;2023-03-01T08:01:02;29.38;;;14.32;;
40046;SDS011;31510;48.122;11.576;2023-03-01T08:03:28;26.55;;;13.95;;
40046;SDS011;31510;48.122;11.576;2023-03-01T08:05:54;28.40;;;13.38;;
40046;SDS011;31510;48.122;11.576;2023-03-01T08:08:19;26.42;;;14.40;;
40046;SDS011;31510;48.122;11.576;2023-03-01T08:10:44;28.70;;;13.15;;
40046;SDS011;31510;48.122;11.576;2023-03-01T08:13:11;22.73;;;12.48;;
40046;SDS011;31510;48.122;11.576;2023-03-01T08:15:36;31.55;;;14.75;;
40046;SDS011;31510;48.122;11.576;2023-03-01T08:18:01;28.70;;;13.98;;
40046;SDS011;31510;48.122;11.576;2023-03-01T08:20:26;30.25;;;14.10;;
40046;SDS011;31510;48.122;11.576;2023-03-01T08:22:52;29.70;;;14.15;;
40046;SDS011;31510;48.122;11.576;2023-03-01T08:25:17;23.88;;;13.80;;
40046;SDS011;31510;48.122;11.576;2023-03-01T08:27:42;24.25;;;11.98;;
40046;SDS011;31510;48.122;11.576;2023-03-01T08:30:08;22.63;;;13.18;;
40046;SDS011;31510;48.122;11.576;2023-03-01T08:32:38;24.92;;;13.05;;
40046;SDS011;31510;48.122;11.576;2023-03-01T08:35:04;33.73;;;13.47;;
40046;SDS011;31510;48.122;11.576;2023-03-01T08:37:29;28.27;;;13.98;;
40046;SDS011;31510;48.122;11.576;2023-03-01T08:39:55;30.70;;;14.10;;
40046;SDS011;31510;48.122;11.576;2023-03-01T08:42:21;28.75;;;14.25;;
40046;SDS011;31510;48.122;11.576;2023-03-01T08:44:46;24.05;;;13.80;;
40046;SDS011;31510;48.122;11.576;2023-03-01T08:47:11;24.45;;;13.50;;
40046;SDS011;31510;48.122;11.576;2023-03-01T08:49:37;25.98;;;13.38;;
40046;SDS011;31510;48.122;11.576;2023-03-01T08:52:02;24.60;;;13.27;;
40046;SDS011;31510;48.122;11.576;2023-03-01T08:54:28;29.90;;;14.73;;
40046;SDS011;31510;48.122;11.576;2023-03-01T08:56:53;27.42;;;14.15;;
40046;SDS011;31510;48.122;11.576;2023-03-01T08:59:19;22.98;;;12.05;;
40046;SDS011;31510;48.122;11.576;2023-03-01T09:01:44;27.20;;;13.93;;
40046;SDS011;31510;48.122;11.576;2023-03-01T09:04:10;26.92;;;14.02;;
40046;SDS011;31510;48.122;11.576;2023-03-01T09:06:37;26.73;;;13.00;;
40046;SDS011;31510;48.122;11.576;2023-03-01T09:09:03;28.63;;;13.70;;
40046;SDS011;31510;48.122;11.576;2023-03-01T09:11:29;29.88;;;15.15;;
40046;SDS011;31510;48.122;11.576;2023-03-01T09:13:55;26.98;;;14.73;;
40046;SDS011;31510;48.122;11.576;2023-03-01T09:16:21;24.30;;;14.43;;
40046;SDS011;31510;48.122;11.576;2023-03-01T09:18:50;29.23;;;13.68;;
40046;SDS011;31510;48.122;11.576;2023-03-01T09:21:17;26.98;;;13.57;;
40046;SDS011;31510;48.122;11.576;2023-03-01T09:23:46;27.75;;;13.00;;
40046;SDS011;31510;48.122;11.576;2023-03-01T09:26:13;29.25;;;13.40;;
40046;SDS011;31510;48.122;11.576;2023-03-01T09:28:47;24.90;;;13.13;;
40046;SDS011;31510;48.122;11.576;2023-03-01T09:31:14;27.35;;;14.32;;
40046;SDS011;31510;48.122;11.576;2023-03-01T09:33:41;28.17;;;13.40;;
40046;SDS011;31510;48.122;11.576;2023-03-01T09:36:08;28.65;;;14.80;;
40046;SDS011;31510;48.122;11.576;2023-03-01T09:38:36;25.65;;;13.20;;
40046;SDS011;31510;48.122;11.576;2023-03-01T09:41:02;27.40;;;13.02;;
40046;SDS011;31510;48.122;11.576;2023-03-01T09:43:46;28.30;;;14.35;;
40046;SDS011;31510;48.122;11.576;2023-03-01T09:46:19;28.02;;;14.27;;
40046;SDS011;31510;48.122;11.576;2023-03-01T09:51:47;26.58;;;14.18;;
40046;SDS011;31510;48.122;11.576;2023-03-01T09:54:20;28.15;;;13.90;;
40046;SDS011;31510;48.122;11.576;2023-03-01T09:56:47;23.38;;;13.15;;
40046;SDS011;31510;48.122;11.576;2023-03-01T09:59:25;28.40;;;14.18;;
40046;SDS011;31510;48.122;11.576;2023-03-01T10:04:45;25.08;;;13.18;;
40046;SDS011;31510;48.122;11.576;2023-03-01T10:07:16;27.33;;;13.95;;
40046;SDS011;31510;48.122;11.576;2023-03-01T10:09:51;29.02;;;15.35;;
40046;SDS011;31510;48.122;11.576;2023-03-01T10:12:18;26.15;;;13.82;;
40046;SDS011;31510;48.122;11.576;2023-03-01T10:14:51;30.48;;;15.18;;
40046;SDS011;31510;48.122;11.576;2023-03-01T10:23:08;27.88;;;14.18;;
40046;SDS011;31510;48.122;11.576;2023-03-01T10:28:06;23.15;;;13.07;;
40046;SDS011;31510;48.122;11.576;2023-03-01T10:33:26;29.88;;;13.95;;
40046;SDS011;31510;48.122;11.576;2023-03-01T10:35:54;29.33;;;14.95;;
40046;SDS011;31510;48.122;11.576;2023-03-01T10:38:19;29.55;;;14.60;;
40046;SDS011;31510;48.122;11.576;2023-03-01T10:43:27;26.85;;;13.98;;
40046;SDS011;31510;48.122;11.576;2023-03-01T10:46:27;24.90;;;13.70;;
40046;SDS011;31510;48.122;11.576;2023-03-01T10:51:42;28.83;;;14.48;;
40046;SDS011;31510;48.122;11.576;2023-03-01T10:54:18;26.02;;;14.15;;
40046;SDS011;31510;48.122;11.576;2023-03-01T10:56:53;28.75;;;14.15;;
40046;SDS011;31510;48.122;11.576;2023-03-01T10:59:42;28.23;;;14.02;;
40046;SDS011;31510;48.122;11.576;2023-03-01T11:04:56;26.92;;;14.20;;
40046;SDS011;31510;48.122;11.576;2023-03-01T11:07:27;23.77;;;13.38;;
40046;SDS011;31510;48.122;11.576;2023-03-01T11:09:53;26.85;;;15.13;;
40046;SDS011;31510;48.122;11.576;2023-03-01T11:12:19;25.95;;;13.60;;
40046;SDS011;31510;48.122;11.576;2023-03-01T11:14:46;25.80;;;14.02;;
40046;SDS011;31510;48.122;11.576;2023-03-01T11:17:27;30.52;;;14.80;;
40046;SDS011;31510;48.122;11.576;2023-03-01T11:22:37;28.20;;;15.00;;
40046;SDS011;31510;48.122;11.576;2023-03-01T11:25:10;26.25;;;15.30;;
40046;SDS011;31510;48.122;11.576;2023-03-01T11:27:40;26.10;;;14.57;;
40046;SDS011;31510;48.122;11.576;2023-03-01T11:38:47;30.48;;;16.55;;
40046;SDS011;31510;48.122;11.576;2023-03-01T11:41:14;25.45;;;14.27;;
40046;SDS011;31510;48.122;11.576;2023-03-01T11:43:52;27.63;;;15.35;;
40046;SDS011;31510;48.122;11.576;2023-03-01T11:46:36;30.10;;;16.05;;
40046;SDS011;31510;48.122;11.576;2023-03-01T11:49:18;26.45;;;14.68;;
40046;SDS011;31510;48.122;11.576;2023-03-01T12:06:11;28.83;;;16.70;;
40046;SDS011;31510;48.122;11.576;2023-03-01T12:23:02;29.45;;;14.98;;
40046;SDS011;31510;48.122;11.576;2023-03-01T12:28:15;28.40;;;15.00;;
40046;SDS011;31510;48.122;11.576;2023-03-01T12:36:23;25.20;;;14.57;;
40046;SDS011;31510;48.122;11.576;2023-03-01T12:38:59;29.02;;;15.13;;
40046;SDS011;31510;48.122;11.576;2023-03-01T12:47:05;30.23;;;14.10;;
40046;SDS011;31510;48.122;11.576;2023-03-01T12:49:43;26.52;;;13.23;;
40046;SDS011;31510;48.122;11.576;2023-03-01T12:52:13;30.00;;;14.30;;
40046;SDS011;31510;48.122;11.576;2023-03-01T12:54:58;26.95;;;14.93;;
40046;SDS011;31510;48.122;11.576;2023-03-01T12:57:38;32.17;;;14.88;;
40046;SDS011;31510;48.122;11.576;2023-03-01T13:00:17;33.45;;;14.85;;
40046;SDS011;31510;48.122;11.576;2023-03-01T13:03:00;30.05;;;15.43;;
40046;SDS011;31510;48.122;11.576;2023-03-01T13:05:44;30.80;;;14.82;;
40046;SDS011;31510;48.122;11.576;2023-03-01T13:08:36;26.58;;;14.65;;
40046;SDS011;31510;48.122;11.576;2023-03-01T13:11:18;25.13;;;14.65;;
40046;SDS011;31510;48.122;11.576;2023-03-01T13:13:46;29.10;;;14.10;;
40046;SDS011;31510;48.122;11.576;2023-03-01T13:16:20;25.45;;;14.02;;
40046;SDS011;31510;48.122;11.576;2023-03-01T13:18:55;29.23;;;15.23;;
40046;SDS011;31510;48.122;11.576;2023-03-01T13:21:31;33.53;;;16.05;;
40046;SDS011;31510;48.122;11.576;2023-03-01T13:23:56;32.97;;;16.33;;
40046;SDS011;31510;48.122;11.576;2023-03-01T13:26:22;29.35;;;14.70;;
40046;SDS011;31510;48.122;11.576;2023-03-01T13:28:51;32.25;;;16.10;;
40046;SDS011;31510;48.122;11.576;2023-03-01T13:33:44;28.67;;;15.73;;
40046;SDS011;31510;48.122;11.576;2023-03-01T13:36:45;29.40;;;15.27;;
40046;SDS011;31510;48.122;11.576;2023-03-01T13:41:49;28.40;;;15.70;;
40046;SDS011;31510;48.122;11.576;2023-03-01T13:46:48;26.33;;;14.40;;
40046;SDS011;31510;48.122;11.576;2023-03-01T13:49:21;30.98;;;15.45;;
40046;SDS011;31510;48.122;11.576;2023-03-01T13:51:50;32.42;;;15.82;;
40046;SDS011;31510;48.122;11.576;2023-03-01T13:54:17;27.27;;;15.57;;
40046;SDS011;31510;48.122;11.576;2023-03-01T13:56:50;27.30;;;15.15;;
40046;SDS011;31510;48.122;11.576;2023-03-01T13:59:19;28.80;;;15.32;;
40046;SDS011;31510;48.122;11.576;2023-03-01T14:01:56;25.35;;;14.52;;
40046;SDS011;31510;48.122;11.576;2023-03-01T14:04:24;29.85;;;15.80;;
40046;SDS011;31510;48.122;11.576;2023-03-01T14:09:34;28.40;;;15.00;;
40046;SDS011;31510;48.122;11.576;2023-03-01T14:17:44;26.15;;;16.05;;
40046;SDS011;31510;48.122;11.576;2023-03-01T14:20:33;29.20;;;14.95;;
40046;SDS011;31510;48.122;11.576;2023-03-01T14:23:17;24.92;;;13.80;;
40046;SDS011;31510;48.122;11.576;2023-03-01T14:25:51;28.98;;;15.85;;
40046;SDS011;31510;48.122;11.576;2023-03-01T14:30:55;26.17;;;14.25;;
40046;SDS011;31510;48.122;11.576;2023-03-01T14:35:55;23.85;;;13.88;;
40046;SDS011;31510;48.122;11.576;2023-03-01T14:38:23;25.23;;;14.43;;
40046;SDS011;31510;48.122;11.576;2023-03-01T14:40:55;51.42;;;16.40;;
40046;SDS011;31510;48.122;11.576;2023-03-01T14:43:23;26.95;;;14.52;;
40046;SDS011;31510;48.122;11.576;2023-03-01T14:45:51;29.33;;;15.18;;
40046;SDS011;31510;48.122;11.576;2023-03-01T14:48:16;25.15;;;15.10;;
40046;SDS011;31510;48.122;11.576;2023-03-01T14:50:43;27.17;;;14.20;;
40046;SDS011;31510;48.122;11.576;2023-03-01T14:53:20;29.00;;;14.55;;
40046;SDS011;31510;48.122;11.576;2023-03-01T14:55:49;26.63;;;15.13;;
40046;SDS011;31510;48.122;11.576;2023-03-01T14:58:18;26.83;;;13.98;;
40046;SDS011;31510;48.122;11.576;2023-03-01T15:00:53;28.52;;;13.57;;
40046;SDS011;31510;48.122;11.576;2023-03-01T15:03:30;29.23;;;14.70;;
40046;SDS011;31510;48.122;11.576;2023-03-01T15:06:06;25.27;;;12.77;;
40046;SDS011;31510;48.122;11.576;2023-03-01T15:08:33;26.02;;;13.68;;
40046;SDS011;31510;48.122;11.576;2023-03-01T15:13:49;23.40;;;12.80;;
40046;SDS011;31510;48.122;11.576;2023-03-01T15:16:19;25.75;;;13.93;;
40046;SDS011;31510;48.122;11.576;2023-03-01T15:18:46;24.30;;;13.82;;
40046;SDS011;31510;48.122;11.576;2023-03-01T15:21:23;24.20;;;13.02;;
40046;SDS011;31510;48.122;11.576;2023-03-01T15:23:53;21.48;;;12.45;;
40046;SDS011;31510;48.122;11.576;2023-03-01T15:26:24;22.33;;;13.70;;
40046;SDS011;31510;48.122;11.576;2023-03-01T15:28:53;25.65;;;13.77;;
40046;SDS011;31510;48.122;11.576;2023-03-01T15:31:27;22.15;;;11.73;;
40046;SDS011;31510;48.122;11.576;2023-03-01T15:34:19;25.73;;;12.82;;
40046;SDS011;31510;48.122;11.576;2023-03-01T15:36:48;24.42;;;12.60;;
40046;SDS011;31510;48.122;11.576;2023-03-01T15:39:26;24.05;;;12.65;;
40046;SDS011;31510;48.122;11.576;2023-03-01T15:41:56;26.90;;;12.70;;
40046;SDS011;31510;48.122;11.576;2023-03-01T15:44:25;23.63;;;13.25;;
40046;SDS011;31510;48.122;11.576;2023-03-01T15:46:55;26.60;;;12.95;;
40046;SDS011;31510;48.122;11.576;2023-03-01T15:49:26;23.75;;;12.27;;
40046;SDS011;31510;48.122;11.576;2023-03-01T15:51:58;29.13;;;13.80;;
40046;SDS011;31510;48.122;11.576;2023-03-01T15:54:23;25.75;;;13.20;;
40046;SDS011;31510;48.122;11.576;2023-03-01T15:56:51;22.30;;;12.95;;
40046;SDS011;31510;48.122;11.576;2023-03-01T15:59:16;25.67;;;13.48;;
40046;SDS011;31510;48.122;11.576;2023-03-01T16:01:43;22.50;;;13.70;;
40046;SDS011;31510;48.122;11.576;2023-03-01T16:04:12;26.50;;;13.57;;
40046;SDS011;31510;48.122;11.576;2023-03-01T16:06:45;26.67;;;13.35;;
40046;SDS011;31510;48.122;11.576;2023-03-01T16:09:10;22.73;;;12.93;;
40046;SDS011;31510;48.122;11.576;2023-03-01T16:11:37;26.55;;;13.30;;
40046;SDS011;31510;48.122;11.576;2023-03-01T16:14:04;22.35;;;12.20;;
40046;SDS011;31510;48.122;11.576;2023-03-01T16:16:30;28.98;;;13.50;;
40046;SDS011;31510;48.122;11.576;2023-03-01T16:18:55;25.88;;;13.57;;